sensor_id;sensor_type;location;lat;lon;timestamp;P1;durP1;ratioP1;P2;durP2;ratioP2
8482;SDS011;4278;42.668;23.312;2022-11-20T00:02:23;3.95;;;1.50;;
8482;SDS011;4278;42.668;23.312;2022-11-20T00:04:49;5.60;;;2.40;;
8482;SDS011;4278;42.668;23.312;2022-11-20T00:07:16;3.28;;;1.77;;
8482;SDS011;4278;42.668;23.312;2022-11-20T00:09:42;3.58;;;1.50;;
8482;SDS011;4278;42.668;23.312;2022-11-20T00:12:09;2.90;;;1.50;;
8482;SDS011;4278;42.668;23.312;2022-11-20T00:14:35;2.97;;;1.30;;
8482;SDS011;4278;42.668;23.312;2022-11-20T00:17:03;3.03;;;1.48;;
8482;SDS011;4278;42.668;23.312;2022-11-20T00:19:29;15.57;;;1.55;;
8482;SDS011;4278;42.668;23.312;2022-11-20T00:21:56;4.47;;;1.42;;
8482;SDS011;4278;42.668;23.312;2022-11-20T00:24:22;2.30;;;1.50;;
8482;SDS011;4278;42.668;23.312;2022-11-20T00:26:49;2.70;;;1.30;;
8482;SDS011;4278;42.668;23.312;2022-11-20T00:29:15;1.98;;;1.45;;
8482;SDS011;4278;42.668;23.312;2022-11-20T00:31:42;4.82;;;1.30;;
8482;SDS011;4278;42.668;23.312;2022-11-20T00:34:10;2.83;;;1.10;;
8482;SDS011;4278;42.668;23.312;2022-11-20T00:36:36;1.55;;;1.10;;
8482;SDS011;4278;42.668;23.312;2022-11-20T00:39:03;3.67;;;1.35;;
8482;SDS011;4278;42.668;23.312;2022-11-20T00:41:29;1.48;;;1.08;;
8482;SDS011;4278;42.668;23.312;2022-11-20T00:43:56;1.80;;;1.30;;
8482;SDS011;4278;42.668;23.312;2022-11-20T00:46:24;3.25;;;1.50;;
8482;SDS011;4278;42.668;23.312;2022-11-20T00:48:50;3.40;;;1.10;;
8482;SDS011;4278;42.668;23.312;2022-11-20T00:51:19;1.13;;;1.00;;
8482;SDS011;4278;42.668;23.312;2022-11-20T00:53:46;1.70;;;1.17;;
8482;SDS011;4278;42.668;23.312;2022-11-20T00:56:13;1.83;;;1.40;;
8482;SDS011;4278;42.668;23.312;2022-11-20T00:58:40;3.42;;;1.30;;
8482;SDS011;4278;42.668;23.312;2022-11-20T01:01:08;4.30;;;1.30;;
8482;SDS011;4278;42.668;23.312;2022-11-20T01:03:36;2.15;;;1.25;;
8482;SDS011;4278;42.668;23.312;2022-11-20T01:06:03;2.25;;;1.38;;
8482;SDS011;4278;42.668;23.312;2022-11-20T01:08:31;3.33;;;1.20;;
8482;SDS011;4278;42.668;23.312;2022-11-20T01:10:58;2.10;;;1.10;;
8482;SDS011;4278;42.668;23.312;2022-11-20T01:13:25;2.60;;;1.20;;
8482;SDS011;4278;42.668;23.312;2022-11-20T01:16:04;2.60;;;1.20;;
8482;SDS011;4278;42.668;23.312;2022-11-20T01:18:30;2.85;;;1.40;;
8482;SDS011;4278;42.668;23.312;2022-11-20T01:20:59;3.88;;;1.45;;
8482;SDS011;4278;42.668;23.312;2022-11-20T01:23:26;8.40;;;1.50;;
8482;SDS011;4278;42.668;23.312;2022-11-20T01:25:54;1.77;;;1.10;;
8482;SDS011;4278;42.668;23.312;2022-11-20T01:28:20;1.27;;;1.13;;
8482;SDS011;4278;42.668;23.312;2022-11-20T01:30:47;1.65;;;1.17;;
8482;SDS011;4278;42.668;23.312;2022-11-20T01:33:13;1.42;;;1.15;;
8482;SDS011;4278;42.668;23.312;2022-11-20T01:35:40;1.80;;;1.13;;
8482;SDS011;4278;42.668;23.312;2022-11-20T01:38:06;2.88;;;1.35;;
8482;SDS011;4278;42.668;23.312;2022-11-20T01:40:32;2.10;;;1.00;;
8482;SDS011;4278;42.668;23.312;2022-11-20T01:43:06;1.88;;;1.20;;
8482;SDS011;4278;42.668;23.312;2022-11-20T01:45:56;1.67;;;1.00;;
8482;SDS011;4278;42.668;23.312;2022-11-20T01:48:24;0.98;;;0.90;;
8482;SDS011;4278;42.668;23.312;2022-11-20T01:50:51;2.10;;;1.20;;
8482;SDS011;4278;42.668;23.312;2022-11-20T01:53:18;3.13;;;1.40;;
8482;SDS011;4278;42.668;23.312;2022-11-20T01:55:48;3.88;;;1.33;;
8482;SDS011;4278;42.668;23.312;2022-11-20T01:58:17;1.58;;;1.02;;
8482;SDS011;4278;42.668;23.312;2022-11-20T02:00:45;3.40;;;1.50;;
8482;SDS011;4278;42.668;23.312;2022-11-20T02:03:12;1.25;;;1.15;;
8482;SDS011;4278;42.668;23.312;2022-11-20T02:05:41;2.45;;;1.15;;
8482;SDS011;4278;42.668;23.312;2022-11-20T02:08:09;1.58;;;1.42;;
8482;SDS011;4278;42.668;23.312;2022-11-20T02:10:36;2.67;;;1.27;;
8482;SDS011;4278;42.668;23.312;2022-11-20T02:13:02;2.25;;;1.20;;
8482;SDS011;4278;42.668;23.312;2022-11-20T02:15:48;1.10;;;1.00;;
8482;SDS011;4278;42.668;23.312;2022-11-20T02:18:15;1.27;;;0.98;;
8482;SDS011;4278;42.668;23.312;2022-11-20T02:20:42;2.08;;;1.13;;
8482;SDS011;4278;42.668;23.312;2022-11-20T02:23:11;2.63;;;1.23;;
8482;SDS011;4278;42.668;23.312;2022-11-20T02:25:39;1.33;;;1.20;;
8482;SDS011;4278;42.668;23.312;2022-11-20T02:28:07;1.02;;;0.80;;
8482;SDS011;4278;42.668;23.312;2022-11-20T02:30:34;1.67;;;1.05;;
8482;SDS011;4278;42.668;23.312;2022-11-20T02:33:01;2.22;;;1.20;;
8482;SDS011;4278;42.668;23.312;2022-11-20T02:35:41;1.00;;;0.82;;
8482;SDS011;4278;42.668;23.312;2022-11-20T02:38:07;1.67;;;1.13;;
8482;SDS011;4278;42.668;23.312;2022-11-20T02:40:34;2.30;;;1.10;;
8482;SDS011;4278;42.668;23.312;2022-11-20T02:43:02;5.03;;;1.30;;
8482;SDS011;4278;42.668;23.312;2022-11-20T02:45:28;2.45;;;1.33;;
8482;SDS011;4278;42.668;23.312;2022-11-20T02:47:55;3.67;;;1.10;;
8482;SDS011;4278;42.668;23.312;2022-11-20T02:50:22;1.85;;;1.23;;
8482;SDS011;4278;42.668;23.312;2022-11-20T02:52:48;2.42;;;1.30;;
8482;SDS011;4278;42.668;23.312;2022-11-20T02:55:15;1.63;;;1.10;;
8482;SDS011;4278;42.668;23.312;2022-11-20T02:57:41;3.58;;;1.17;;
8482;SDS011;4278;42.668;23.312;2022-11-20T03:00:10;1.48;;;1.30;;
8482;SDS011;4278;42.668;23.312;2022-11-20T03:02:37;2.38;;;1.40;;
8482;SDS011;4278;42.668;23.312;2022-11-20T03:05:03;5.32;;;1.83;;
8482;SDS011;4278;42.668;23.312;2022-11-20T03:07:30;4.32;;;1.50;;
8482;SDS011;4278;42.668;23.312;2022-11-20T03:09:56;2.28;;;1.30;;
8482;SDS011;4278;42.668;23.312;2022-11-20T03:12:23;1.30;;;1.20;;
8482;SDS011;4278;42.668;23.312;2022-11-20T03:14:49;2.80;;;1.40;;
8482;SDS011;4278;42.668;23.312;2022-11-20T03:17:17;2.13;;;1.20;;
8482;SDS011;4278;42.668;23.312;2022-11-20T03:19:44;4.45;;;1.20;;
8482;SDS011;4278;42.668;23.312;2022-11-20T03:22:10;2.35;;;1.30;;
8482;SDS011;4278;42.668;23.312;2022-11-20T03:24:36;4.22;;;1.80;;
8482;SDS011;4278;42.668;23.312;2022-11-20T03:27:03;1.45;;;1.13;;
8482;SDS011;4278;42.668;23.312;2022-11-20T03:29:31;3.20;;;1.15;;
8482;SDS011;4278;42.668;23.312;2022-11-20T03:31:57;3.42;;;1.40;;
8482;SDS011;4278;42.668;23.312;2022-11-20T03:34:25;4.93;;;1.25;;
8482;SDS011;4278;42.668;23.312;2022-11-20T03:36:51;2.28;;;1.50;;
8482;SDS011;4278;42.668;23.312;2022-11-20T03:39:18;2.88;;;1.60;;
8482;SDS011;4278;42.668;23.312;2022-11-20T03:41:44;2.58;;;1.38;;
8482;SDS011;4278;42.668;23.312;2022-11-20T03:44:11;4.97;;;1.40;;
8482;SDS011;4278;42.668;23.312;2022-11-20T03:46:38;4.22;;;1.30;;
8482;SDS011;4278;42.668;23.312;2022-11-20T03:49:05;2.58;;;1.27;;
8482;SDS011;4278;42.668;23.312;2022-11-20T03:51:33;3.38;;;1.42;;
8482;SDS011;4278;42.668;23.312;2022-11-20T03:54:01;5.05;;;1.70;;
8482;SDS011;4278;42.668;23.312;2022-11-20T03:56:29;1.35;;;1.20;;
8482;SDS011;4278;42.668;23.312;2022-11-20T03:58:56;2.17;;;1.08;;
8482;SDS011;4278;42.668;23.312;2022-11-20T04:01:23;4.20;;;1.30;;
8482;SDS011;4278;42.668;23.312;2022-11-20T04:03:51;3.70;;;1.27;;
8482;SDS011;4278;42.668;23.312;2022-11-20T04:06:18;2.58;;;1.27;;
8482;SDS011;4278;42.668;23.312;2022-11-20T04:08:46;1.77;;;1.30;;
8482;SDS011;4278;42.668;23.312;2022-11-20T04:11:13;2.22;;;1.17;;
8482;SDS011;4278;42.668;23.312;2022-11-20T04:13:40;3.88;;;1.40;;
8482;SDS011;4278;42.668;23.312;2022-11-20T04:16:07;1.80;;;1.10;;
8482;SDS011;4278;42.668;23.312;2022-11-20T04:18:34;1.90;;;1.40;;
8482;SDS011;4278;42.668;23.312;2022-11-20T04:21:01;3.63;;;1.73;;
8482;SDS011;4278;42.668;23.312;2022-11-20T04:23:27;2.20;;;1.42;;
8482;SDS011;4278;42.668;23.312;2022-11-20T04:25:59;1.70;;;1.20;;
8482;SDS011;4278;42.668;23.312;2022-11-20T04:28:26;4.40;;;1.42;;
8482;SDS011;4278;42.668;23.312;2022-11-20T04:30:52;2.50;;;1.30;;
8482;SDS011;4278;42.668;23.312;2022-11-20T04:33:19;2.25;;;1.63;;
8482;SDS011;4278;42.668;23.312;2022-11-20T04:35:46;0.77;;;0.77;;
8482;SDS011;4278;42.668;23.312;2022-11-20T04:38:13;2.88;;;1.45;;
8482;SDS011;4278;42.668;23.312;2022-11-20T04:40:40;2.10;;;1.17;;
8482;SDS011;4278;42.668;23.312;2022-11-20T04:43:07;2.75;;;1.25;;
8482;SDS011;4278;42.668;23.312;2022-11-20T04:45:34;2.80;;;1.20;;
8482;SDS011;4278;42.668;23.312;2022-11-20T04:48:00;2.15;;;1.40;;
8482;SDS011;4278;42.668;23.312;2022-11-20T04:50:27;2.33;;;1.35;;
8482;SDS011;4278;42.668;23.312;2022-11-20T04:52:53;2.92;;;1.17;;
8482;SDS011;4278;42.668;23.312;2022-11-20T04:55:20;1.70;;;1.20;;
8482;SDS011;4278;42.668;23.312;2022-11-20T04:57:49;2.17;;;1.25;;
8482;SDS011;4278;42.668;23.312;2022-11-20T05:00:17;1.92;;;1.48;;
8482;SDS011;4278;42.668;23.312;2022-11-20T05:02:44;4.25;;;1.20;;
8482;SDS011;4278;42.668;23.312;2022-11-20T05:05:10;4.13;;;1.25;;
8482;SDS011;4278;42.668;23.312;2022-11-20T05:07:37;1.27;;;1.00;;
8482;SDS011;4278;42.668;23.312;2022-11-20T05:10:04;2.72;;;1.40;;
8482;SDS011;4278;42.668;23.312;2022-11-20T05:12:31;1.20;;;1.10;;
8482;SDS011;4278;42.668;23.312;2022-11-20T05:14:57;1.02;;;0.98;;
8482;SDS011;4278;42.668;23.312;2022-11-20T05:17:25;1.55;;;1.20;;
8482;SDS011;4278;42.668;23.312;2022-11-20T05:19:51;1.13;;;1.02;;
8482;SDS011;4278;42.668;23.312;2022-11-20T05:22:18;3.42;;;1.35;;
8482;SDS011;4278;42.668;23.312;2022-11-20T05:24:44;1.90;;;0.80;;
8482;SDS011;4278;42.668;23.312;2022-11-20T05:27:11;3.45;;;1.02;;
8482;SDS011;4278;42.668;23.312;2022-11-20T05:29:37;1.75;;;1.15;;
8482;SDS011;4278;42.668;23.312;2022-11-20T05:32:04;1.38;;;1.00;;
8482;SDS011;4278;42.668;23.312;2022-11-20T05:34:33;3.45;;;1.35;;
8482;SDS011;4278;42.668;23.312;2022-11-20T05:37:00;4.70;;;1.40;;
8482;SDS011;4278;42.668;23.312;2022-11-20T05:39:26;2.78;;;1.20;;
8482;SDS011;4278;42.668;23.312;2022-11-20T05:41:53;9.38;;;1.88;;
8482;SDS011;4278;42.668;23.312;2022-11-20T05:44:33;1.10;;;1.00;;
8482;SDS011;4278;42.668;23.312;2022-11-20T05:46:59;1.65;;;1.00;;
8482;SDS011;4278;42.668;23.312;2022-11-20T05:49:26;2.60;;;1.33;;
8482;SDS011;4278;42.668;23.312;2022-11-20T05:51:54;3.55;;;1.10;;
8482;SDS011;4278;42.668;23.312;2022-11-20T05:54:20;1.40;;;1.17;;
8482;SDS011;4278;42.668;23.312;2022-11-20T05:56:47;4.78;;;1.23;;
8482;SDS011;4278;42.668;23.312;2022-11-20T05:59:13;1.95;;;1.38;;
8482;SDS011;4278;42.668;23.312;2022-11-20T06:01:40;2.20;;;1.50;;
8482;SDS011;4278;42.668;23.312;2022-11-20T06:04:06;2.05;;;1.35;;
8482;SDS011;4278;42.668;23.312;2022-11-20T06:06:33;1.77;;;1.40;;
8482;SDS011;4278;42.668;23.312;2022-11-20T06:09:01;3.67;;;1.05;;
8482;SDS011;4278;42.668;23.312;2022-11-20T06:11:27;3.45;;;1.55;;
8482;SDS011;4278;42.668;23.312;2022-11-20T06:13:53;2.67;;;1.52;;
8482;SDS011;4278;42.668;23.312;2022-11-20T06:16:20;3.90;;;1.30;;
8482;SDS011;4278;42.668;23.312;2022-11-20T06:18:47;2.67;;;1.38;;
8482;SDS011;4278;42.668;23.312;2022-11-20T06:21:14;3.70;;;1.30;;
8482;SDS011;4278;42.668;23.312;2022-11-20T06:23:41;5.88;;;2.00;;
8482;SDS011;4278;42.668;23.312;2022-11-20T06:26:09;4.13;;;1.55;;
8482;SDS011;4278;42.668;23.312;2022-11-20T06:28:36;5.25;;;1.75;;
8482;SDS011;4278;42.668;23.312;2022-11-20T06:31:03;4.90;;;1.52;;
8482;SDS011;4278;42.668;23.312;2022-11-20T06:33:30;2.55;;;1.40;;
8482;SDS011;4278;42.668;23.312;2022-11-20T06:35:57;4.90;;;1.83;;
8482;SDS011;4278;42.668;23.312;2022-11-20T06:38:23;4.65;;;1.67;;
8482;SDS011;4278;42.668;23.312;2022-11-20T06:40:50;3.72;;;1.73;;
8482;SDS011;4278;42.668;23.312;2022-11-20T06:43:18;2.28;;;1.60;;
8482;SDS011;4278;42.668;23.312;2022-11-20T06:45:44;5.60;;;1.60;;
8482;SDS011;4278;42.668;23.312;2022-11-20T06:48:11;3.85;;;1.10;;
8482;SDS011;4278;42.668;23.312;2022-11-20T06:50:37;4.25;;;1.20;;
8482;SDS011;4278;42.668;23.312;2022-11-20T06:53:04;2.10;;;1.60;;
8482;SDS011;4278;42.668;23.312;2022-11-20T06:55:31;2.58;;;1.20;;
8482;SDS011;4278;42.668;23.312;2022-11-20T06:57:58;1.92;;;1.17;;
8482;SDS011;4278;42.668;23.312;2022-11-20T07:00:26;3.05;;;1.10;;
8482;SDS011;4278;42.668;23.312;2022-11-20T07:02:52;2.92;;;1.52;;
8482;SDS011;4278;42.668;23.312;2022-11-20T07:05:19;2.63;;;0.80;;
8482;SDS011;4278;42.668;23.312;2022-11-20T07:07:45;3.65;;;1.23;;
8482;SDS011;4278;42.668;23.312;2022-11-20T07:10:12;2.17;;;1.25;;
8482;SDS011;4278;42.668;23.312;2022-11-20T07:12:38;1.52;;;0.95;;
8482;SDS011;4278;42.668;23.312;2022-11-20T07:15:05;4.78;;;1.25;;
8482;SDS011;4278;42.668;23.312;2022-11-20T07:17:33;2.30;;;1.20;;
8482;SDS011;4278;42.668;23.312;2022-11-20T07:20:00;1.67;;;1.00;;
8482;SDS011;4278;42.668;23.312;2022-11-20T07:22:26;2.45;;;1.00;;
8482;SDS011;4278;42.668;23.312;2022-11-20T07:24:53;2.08;;;1.58;;
8482;SDS011;4278;42.668;23.312;2022-11-20T07:27:20;2.95;;;1.10;;
8482;SDS011;4278;42.668;23.312;2022-11-20T07:29:46;2.33;;;1.20;;
8482;SDS011;4278;42.668;23.312;2022-11-20T07:32:12;2.90;;;1.20;;
8482;SDS011;4278;42.668;23.312;2022-11-20T07:34:40;5.82;;;1.50;;
8482;SDS011;4278;42.668;23.312;2022-11-20T07:37:07;4.45;;;1.40;;
8482;SDS011;4278;42.668;23.312;2022-11-20T07:39:33;1.98;;;1.38;;
8482;SDS011;4278;42.668;23.312;2022-11-20T07:42:00;5.10;;;1.80;;
8482;SDS011;4278;42.668;23.312;2022-11-20T07:44:26;1.45;;;1.15;;
8482;SDS011;4278;42.668;23.312;2022-11-20T07:46:53;1.92;;;1.50;;
8482;SDS011;4278;42.668;23.312;2022-11-20T07:49:19;2.08;;;1.30;;
8482;SDS011;4278;42.668;23.312;2022-11-20T07:51:49;4.97;;;1.90;;
8482;SDS011;4278;42.668;23.312;2022-11-20T07:54:16;6.03;;;2.05;;
8482;SDS011;4278;42.668;23.312;2022-11-20T07:56:42;7.75;;;2.53;;
8482;SDS011;4278;42.668;23.312;2022-11-20T07:59:09;5.57;;;2.00;;
8482;SDS011;4278;42.668;23.312;2022-11-20T08:01:36;4.95;;;1.80;;
8482;SDS011;4278;42.668;23.312;2022-11-20T08:04:03;3.15;;;1.70;;
8482;SDS011;4278;42.668;23.312;2022-11-20T08:06:30;5.72;;;1.63;;
8482;SDS011;4278;42.668;23.312;2022-11-20T08:08:57;6.18;;;2.75;;
8482;SDS011;4278;42.668;23.312;2022-11-20T08:11:24;4.40;;;2.00;;
8482;SDS011;4278;42.668;23.312;2022-11-20T08:14:08;3.15;;;1.50;;
8482;SDS011;4278;42.668;23.312;2022-11-20T08:16:41;2.47;;;1.60;;
8482;SDS011;4278;42.668;23.312;2022-11-20T08:19:08;5.72;;;1.60;;
8482;SDS011;4278;42.668;23.312;2022-11-20T08:21:35;4.85;;;2.08;;
8482;SDS011;4278;42.668;23.312;2022-11-20T08:24:03;9.43;;;1.83;;
8482;SDS011;4278;42.668;23.312;2022-11-20T08:26:29;6.07;;;1.52;;
8482;SDS011;4278;42.668;23.312;2022-11-20T08:28:56;2.55;;;1.70;;
8482;SDS011;4278;42.668;23.312;2022-11-20T08:31:23;5.88;;;2.50;;
8482;SDS011;4278;42.668;23.312;2022-11-20T08:33:49;3.10;;;1.77;;
8482;SDS011;4278;42.668;23.312;2022-11-20T08:36:16;6.53;;;2.00;;
8482;SDS011;4278;42.668;23.312;2022-11-20T08:38:46;2.38;;;1.50;;
8482;SDS011;4278;42.668;23.312;2022-11-20T08:41:14;4.13;;;2.13;;
8482;SDS011;4278;42.668;23.312;2022-11-20T08:43:51;4.03;;;2.05;;
8482;SDS011;4278;42.668;23.312;2022-11-20T08:46:17;5.97;;;1.75;;
8482;SDS011;4278;42.668;23.312;2022-11-20T08:48:44;7.10;;;1.98;;
8482;SDS011;4278;42.668;23.312;2022-11-20T08:51:11;6.20;;;1.60;;
8482;SDS011;4278;42.668;23.312;2022-11-20T08:53:37;6.68;;;2.00;;
8482;SDS011;4278;42.668;23.312;2022-11-20T08:56:04;3.95;;;1.95;;
8482;SDS011;4278;42.668;23.312;2022-11-20T08:58:32;4.13;;;1.90;;
8482;SDS011;4278;42.668;23.312;2022-11-20T09:00:59;3.55;;;2.30;;
8482;SDS011;4278;42.668;23.312;2022-11-20T09:03:26;4.40;;;2.70;;
8482;SDS011;4278;42.668;23.312;2022-11-20T09:05:56;7.90;;;2.92;;
8482;SDS011;4278;42.668;23.312;2022-11-20T09:08:22;5.40;;;3.08;;
8482;SDS011;4278;42.668;23.312;2022-11-20T09:10:50;5.65;;;2.83;;
8482;SDS011;4278;42.668;23.312;2022-11-20T09:13:17;3.17;;;2.45;;
8482;SDS011;4278;42.668;23.312;2022-11-20T09:15:45;7.45;;;3.13;;
8482;SDS011;4278;42.668;23.312;2022-11-20T09:18:12;6.07;;;3.20;;
8482;SDS011;4278;42.668;23.312;2022-11-20T09:20:38;2.28;;;1.70;;
8482;SDS011;4278;42.668;23.312;2022-11-20T09:23:05;4.55;;;2.10;;
8482;SDS011;4278;42.668;23.312;2022-11-20T09:25:31;1.70;;;1.60;;
8482;SDS011;4278;42.668;23.312;2022-11-20T09:27:58;2.30;;;1.50;;
8482;SDS011;4278;42.668;23.312;2022-11-20T09:30:25;2.15;;;1.40;;
8482;SDS011;4278;42.668;23.312;2022-11-20T09:32:53;4.20;;;1.30;;
8482;SDS011;4278;42.668;23.312;2022-11-20T09:35:19;3.00;;;1.63;;
8482;SDS011;4278;42.668;23.312;2022-11-20T09:37:46;3.63;;;1.23;;
8482;SDS011;4278;42.668;23.312;2022-11-20T09:40:17;1.53;;;0.90;;
8482;SDS011;4278;42.668;23.312;2022-11-20T09:42:46;4.77;;;1.50;;
8482;SDS011;4278;42.668;23.312;2022-11-20T09:45:20;1.17;;;1.07;;
8482;SDS011;4278;42.668;23.312;2022-11-20T09:47:53;3.07;;;1.30;;
8482;SDS011;4278;42.668;23.312;2022-11-20T09:50:26;2.07;;;1.70;;
8482;SDS011;4278;42.668;23.312;2022-11-20T09:53:01;1.60;;;1.50;;
8482;SDS011;4278;42.668;23.312;2022-11-20T09:55:30;1.80;;;1.40;;
8482;SDS011;4278;42.668;23.312;2022-11-20T09:57:57;2.83;;;1.47;;
8482;SDS011;4278;42.668;23.312;2022-11-20T10:00:24;4.87;;;1.87;;
8482;SDS011;4278;42.668;23.312;2022-11-20T10:02:55;2.47;;;1.30;;
8482;SDS011;4278;42.668;23.312;2022-11-20T10:05:22;2.55;;;1.52;;
8482;SDS011;4278;42.668;23.312;2022-11-20T10:07:52;2.65;;;1.77;;
8482;SDS011;4278;42.668;23.312;2022-11-20T10:10:22;3.88;;;2.25;;
8482;SDS011;4278;42.668;23.312;2022-11-20T10:13:00;6.90;;;2.50;;
8482;SDS011;4278;42.668;23.312;2022-11-20T10:15:33;3.78;;;2.10;;
8482;SDS011;4278;42.668;23.312;2022-11-20T10:18:06;2.40;;;2.10;;
8482;SDS011;4278;42.668;23.312;2022-11-20T10:20:38;5.07;;;2.28;;
8482;SDS011;4278;42.668;23.312;2022-11-20T10:23:12;14.55;;;6.93;;
8482;SDS011;4278;42.668;23.312;2022-11-20T10:25:44;5.38;;;2.97;;
8482;SDS011;4278;42.668;23.312;2022-11-20T10:28:29;6.95;;;2.30;;
8482;SDS011;4278;42.668;23.312;2022-11-20T10:30:59;5.75;;;2.80;;
8482;SDS011;4278;42.668;23.312;2022-11-20T10:33:28;7.03;;;3.22;;
8482;SDS011;4278;42.668;23.312;2022-11-20T10:35:59;7.13;;;3.38;;
8482;SDS011;4278;42.668;23.312;2022-11-20T10:38:30;8.73;;;3.80;;
8482;SDS011;4278;42.668;23.312;2022-11-20T10:41:00;6.30;;;3.08;;
8482;SDS011;4278;42.668;23.312;2022-11-20T10:43:41;8.40;;;3.80;;
8482;SDS011;4278;42.668;23.312;2022-11-20T10:46:08;9.48;;;4.60;;
8482;SDS011;4278;42.668;23.312;2022-11-20T10:48:40;9.15;;;4.13;;
8482;SDS011;4278;42.668;23.312;2022-11-20T10:51:12;7.25;;;4.60;;
8482;SDS011;4278;42.668;23.312;2022-11-20T10:53:45;13.45;;;3.60;;
8482;SDS011;4278;42.668;23.312;2022-11-20T10:56:16;8.38;;;3.50;;
8482;SDS011;4278;42.668;23.312;2022-11-20T10:58:45;6.85;;;3.47;;
8482;SDS011;4278;42.668;23.312;2022-11-20T11:01:16;5.88;;;4.03;;
8482;SDS011;4278;42.668;23.312;2022-11-20T11:03:44;15.50;;;3.65;;
8482;SDS011;4278;42.668;23.312;2022-11-20T11:06:14;7.40;;;3.55;;
8482;SDS011;4278;42.668;23.312;2022-11-20T11:08:43;10.63;;;3.65;;
8482;SDS011;4278;42.668;23.312;2022-11-20T11:11:15;8.82;;;3.17;;
8482;SDS011;4278;42.668;23.312;2022-11-20T11:13:44;5.43;;;1.93;;
8482;SDS011;4278;42.668;23.312;2022-11-20T11:16:16;7.40;;;1.90;;
8482;SDS011;4278;42.668;23.312;2022-11-20T11:18:47;1.73;;;1.03;;
8482;SDS011;4278;42.668;23.312;2022-11-20T11:21:13;3.17;;;1.13;;
8482;SDS011;4278;42.668;23.312;2022-11-20T11:23:47;2.80;;;1.17;;
8482;SDS011;4278;42.668;23.312;2022-11-20T11:26:22;2.33;;;1.30;;
8482;SDS011;4278;42.668;23.312;2022-11-20T11:28:52;2.97;;;1.00;;
8482;SDS011;4278;42.668;23.312;2022-11-20T11:31:21;3.63;;;1.10;;
8482;SDS011;4278;42.668;23.312;2022-11-20T11:33:50;1.07;;;0.90;;
8482;SDS011;4278;42.668;23.312;2022-11-20T11:36:16;2.13;;;1.27;;
8482;SDS011;4278;42.668;23.312;2022-11-20T11:38:43;1.53;;;0.97;;
8482;SDS011;4278;42.668;23.312;2022-11-20T11:41:12;2.07;;;1.00;;
8482;SDS011;4278;42.668;23.312;2022-11-20T11:43:39;5.33;;;1.30;;
8482;SDS011;4278;42.668;23.312;2022-11-20T11:46:25;1.57;;;1.00;;
8482;SDS011;4278;42.668;23.312;2022-11-20T11:48:57;3.93;;;1.30;;
8482;SDS011;4278;42.668;23.312;2022-11-20T11:51:25;4.53;;;1.23;;
8482;SDS011;4278;42.668;23.312;2022-11-20T11:53:54;1.83;;;1.10;;
8482;SDS011;4278;42.668;23.312;2022-11-20T11:56:21;2.10;;;1.30;;
8482;SDS011;4278;42.668;23.312;2022-11-20T11:58:50;1.70;;;1.20;;
8482;SDS011;4278;42.668;23.312;2022-11-20T12:01:24;3.70;;;1.10;;
8482;SDS011;4278;42.668;23.312;2022-11-20T12:03:58;1.90;;;1.40;;
8482;SDS011;4278;42.668;23.312;2022-11-20T12:06:26;1.00;;;0.87;;
8482;SDS011;4278;42.668;23.312;2022-11-20T12:08:57;1.93;;;1.20;;
8482;SDS011;4278;42.668;23.312;2022-11-20T12:11:29;4.53;;;1.13;;
8482;SDS011;4278;42.668;23.312;2022-11-20T12:13:58;5.03;;;1.47;;
8482;SDS011;4278;42.668;23.312;2022-11-20T12:16:28;2.80;;;1.40;;
8482;SDS011;4278;42.668;23.312;2022-11-20T12:18:58;1.87;;;0.90;;
8482;SDS011;4278;42.668;23.312;2022-11-20T12:21:27;1.10;;;1.00;;
8482;SDS011;4278;42.668;23.312;2022-11-20T12:26:55;4.80;;;1.20;;
8482;SDS011;4278;42.668;23.312;2022-11-20T12:29:28;2.60;;;1.40;;
8482;SDS011;4278;42.668;23.312;2022-11-20T12:32:10;3.53;;;1.00;;
8482;SDS011;4278;42.668;23.312;2022-11-20T12:34:46;1.53;;;0.90;;
8482;SDS011;4278;42.668;23.312;2022-11-20T12:37:17;1.00;;;0.80;;
8482;SDS011;4278;42.668;23.312;2022-11-20T12:39:47;3.10;;;1.10;;
8482;SDS011;4278;42.668;23.312;2022-11-20T12:48:17;4.67;;;1.30;;
8482;SDS011;4278;42.668;23.312;2022-11-20T12:50:49;2.20;;;1.20;;
8482;SDS011;4278;42.668;23.312;2022-11-20T12:53:23;2.23;;;1.50;;
8482;SDS011;4278;42.668;23.312;2022-11-20T12:55:52;4.57;;;1.43;;
8482;SDS011;4278;42.668;23.312;2022-11-20T12:58:24;1.90;;;1.23;;
8482;SDS011;4278;42.668;23.312;2022-11-20T13:00:55;2.80;;;1.83;;
8482;SDS011;4278;42.668;23.312;2022-11-20T13:03:32;6.50;;;2.70;;
8482;SDS011;4278;42.668;23.312;2022-11-20T13:06:04;5.73;;;3.50;;
8482;SDS011;4278;42.668;23.312;2022-11-20T13:08:32;5.10;;;3.00;;
8482;SDS011;4278;42.668;23.312;2022-11-20T13:11:01;7.47;;;3.33;;
8482;SDS011;4278;42.668;23.312;2022-11-20T13:13:30;4.23;;;3.03;;
8482;SDS011;4278;42.668;23.312;2022-11-20T13:15:58;3.50;;;2.60;;
8482;SDS011;4278;42.668;23.312;2022-11-20T13:18:37;4.50;;;3.03;;
8482;SDS011;4278;42.668;23.312;2022-11-20T13:21:14;5.83;;;2.50;;
8482;SDS011;4278;42.668;23.312;2022-11-20T13:23:41;5.07;;;3.20;;
8482;SDS011;4278;42.668;23.312;2022-11-20T13:26:15;10.13;;;3.33;;
8482;SDS011;4278;42.668;23.312;2022-11-20T13:28:41;4.40;;;2.53;;
8482;SDS011;4278;42.668;23.312;2022-11-20T13:31:09;7.57;;;4.33;;
8482;SDS011;4278;42.668;23.312;2022-11-20T13:33:36;6.37;;;2.80;;
8482;SDS011;4278;42.668;23.312;2022-11-20T13:36:04;7.23;;;3.27;;
8482;SDS011;4278;42.668;23.312;2022-11-20T13:38:41;9.77;;;4.30;;
8482;SDS011;4278;42.668;23.312;2022-11-20T13:41:09;8.20;;;3.43;;
8482;SDS011;4278;42.668;23.312;2022-11-20T13:43:51;8.80;;;3.90;;
8482;SDS011;4278;42.668;23.312;2022-11-20T13:46:18;5.70;;;4.13;;
8482;SDS011;4278;42.668;23.312;2022-11-20T13:48:49;5.27;;;3.67;;
8482;SDS011;4278;42.668;23.312;2022-11-20T13:51:25;9.43;;;3.73;;
8482;SDS011;4278;42.668;23.312;2022-11-20T13:53:59;6.43;;;3.53;;
8482;SDS011;4278;42.668;23.312;2022-11-20T13:56:31;7.57;;;3.63;;
8482;SDS011;4278;42.668;23.312;2022-11-20T13:59:02;6.63;;;3.63;;
8482;SDS011;4278;42.668;23.312;2022-11-20T14:01:31;4.83;;;3.13;;
8482;SDS011;4278;42.668;23.312;2022-11-20T14:03:59;9.37;;;4.60;;
8482;SDS011;4278;42.668;23.312;2022-11-20T14:06:27;7.73;;;3.80;;
8482;SDS011;4278;42.668;23.312;2022-11-20T14:08:57;8.50;;;3.70;;
8482;SDS011;4278;42.668;23.312;2022-11-20T14:11:24;6.53;;;3.57;;
8482;SDS011;4278;42.668;23.312;2022-11-20T14:13:55;7.00;;;3.60;;
8482;SDS011;4278;42.668;23.312;2022-11-20T14:16:22;10.60;;;3.73;;
8482;SDS011;4278;42.668;23.312;2022-11-20T14:18:49;9.60;;;3.30;;
8482;SDS011;4278;42.668;23.312;2022-11-20T14:21:21;8.17;;;3.53;;
8482;SDS011;4278;42.668;23.312;2022-11-20T14:23:48;9.73;;;3.77;;
8482;SDS011;4278;42.668;23.312;2022-11-20T14:26:16;11.43;;;4.50;;
8482;SDS011;4278;42.668;23.312;2022-11-20T14:28:47;6.03;;;3.67;;
8482;SDS011;4278;42.668;23.312;2022-11-20T14:31:16;7.80;;;4.13;;
8482;SDS011;4278;42.668;23.312;2022-11-20T14:33:45;5.50;;;3.23;;
8482;SDS011;4278;42.668;23.312;2022-11-20T14:36:16;4.63;;;3.20;;
8482;SDS011;4278;42.668;23.312;2022-11-20T14:38:43;5.90;;;2.77;;
8482;SDS011;4278;42.668;23.312;2022-11-20T14:41:16;6.23;;;3.00;;
8482;SDS011;4278;42.668;23.312;2022-11-20T14:43:45;4.77;;;3.23;;
8482;SDS011;4278;42.668;23.312;2022-11-20T14:46:11;8.70;;;3.70;;
8482;SDS011;4278;42.668;23.312;2022-11-20T14:48:39;6.20;;;3.70;;
8482;SDS011;4278;42.668;23.312;2022-11-20T14:51:08;6.33;;;3.53;;
8482;SDS011;4278;42.668;23.312;2022-11-20T14:53:35;3.90;;;2.27;;
8482;SDS011;4278;42.668;23.312;2022-11-20T14:56:02;4.63;;;2.30;;
8482;SDS011;4278;42.668;23.312;2022-11-20T14:58:30;4.07;;;2.20;;
8482;SDS011;4278;42.668;23.312;2022-11-20T15:00:58;5.27;;;2.13;;
8482;SDS011;4278;42.668;23.312;2022-11-20T15:03:30;1.50;;;1.40;;
8482;SDS011;4278;42.668;23.312;2022-11-20T15:05:57;1.93;;;1.73;;
8482;SDS011;4278;42.668;23.312;2022-11-20T15:08:23;4.20;;;1.93;;
8482;SDS011;4278;42.668;23.312;2022-11-20T15:10:50;3.50;;;2.27;;
8482;SDS011;4278;42.668;23.312;2022-11-20T15:13:19;6.07;;;2.40;;
8482;SDS011;4278;42.668;23.312;2022-11-20T15:15:49;3.37;;;2.83;;
8482;SDS011;4278;42.668;23.312;2022-11-20T15:18:17;5.57;;;2.37;;